createdAt,value
2023-02-21T00:05:16.554Z,100145.72
2023-02-21T00:10:38.198Z,100133.50
2023-02-21T00:15:59.868Z,100120.09
2023-02-21T00:21:21.142Z,100133.13
2023-02-21T00:26:42.668Z,100131.97
2023-02-21T00:32:03.952Z,100135.72
2023-02-21T00:37:25.358Z,100132.81
2023-02-21T00:42:46.722Z,100132.03
2023-02-21T00:48:08.177Z,100119.94
2023-02-21T00:53:29.521Z,100126.59
2023-02-21T00:58:50.880Z,100093.56
2023-02-21T01:04:12.565Z,100134.94
2023-02-21T01:09:34.022Z,100150.88
2023-02-21T01:14:54.969Z,100154.63
2023-02-21T01:20:16.566Z,100125.34
2023-02-21T01:25:38.505Z,100125.72
2023-02-21T01:31:00.069Z,100130.56
2023-02-21T01:36:24.656Z,100154.44
2023-02-21T01:41:46.119Z,100135.56
2023-02-21T01:47:07.633Z,100134.38
2023-02-21T01:52:29.842Z,100133.16
2023-02-21T01:57:52.649Z,100130.16
2023-02-21T02:03:18.284Z,100150.53
2023-02-21T02:08:47.068Z,100136.09
2023-02-21T02:14:03.119Z,100145.16
2023-02-21T02:19:47.622Z,100152.28
2023-02-21T02:25:18.541Z,100139.78
2023-02-21T02:30:52.358Z,100128.84
2023-02-21T02:36:07.062Z,100130.31
2023-02-21T02:41:24.751Z,100126.53
2023-02-21T02:46:33.581Z,100128.59
2023-02-21T02:51:36.787Z,100116.34
2023-02-21T02:56:41.740Z,100114.69
2023-02-21T03:01:44.604Z,100100.59
2023-02-21T03:07:00.133Z,100090.22
2023-02-21T03:12:36.412Z,100089.16
2023-02-21T03:17:44.345Z,100069.22
2023-02-21T03:22:48.452Z,100059.88
2023-02-21T03:27:54.792Z,100070.44
2023-02-21T03:33:01.300Z,100047.63
2023-02-21T03:38:05.599Z,100045.41
2023-02-21T03:43:08.917Z,100039.63
2023-02-21T03:48:31.746Z,100035.66
2023-02-21T03:53:47.700Z,100031.13
2023-02-21T03:58:54.095Z,100030.91
2023-02-21T04:03:57.877Z,100011.41
2023-02-21T04:09:02.456Z,100008.50
2023-02-21T04:14:06.758Z,100011.84
2023-02-21T04:19:09.953Z,99997.72
2023-02-21T04:24:13.166Z,99988.81
2023-02-21T04:29:17.344Z,99990.44
2023-02-21T04:34:21.775Z,99982.16
2023-02-21T04:39:24.810Z,99964.34
2023-02-21T04:44:28.012Z,99969.78
2023-02-21T04:49:31.052Z,99975.78
2023-02-21T04:54:34.173Z,99970.88
2023-02-21T04:59:37.769Z,99975.81
2023-02-21T05:04:40.929Z,99944.81
2023-02-21T05:09:43.693Z,99957.28
2023-02-21T05:14:46.548Z,99964.34
2023-02-21T05:19:49.337Z,99943.63
2023-02-21T05:24:52.037Z,99924.97
2023-02-21T05:29:54.874Z,99933.88
2023-02-21T05:34:58.247Z,99917.41
2023-02-21T05:40:01.616Z,99918.44
2023-02-21T05:45:38.311Z,99889.13
2023-02-21T05:50:41.144Z,99891.72
2023-02-21T05:55:44.052Z,99870.16
2023-02-21T06:00:47.058Z,99852.25
2023-02-21T06:05:50.231Z,99838.91
2023-02-21T06:10:53.005Z,99833.97
2023-02-21T06:15:56.234Z,99834.56
2023-02-21T06:20:59.294Z,99829.31
2023-02-21T06:26:02.611Z,99836.59
2023-02-21T06:31:06.507Z,99846.06
2023-02-21T06:36:13.885Z,99814.34
2023-02-21T06:41:18.331Z,99789.13
2023-02-21T06:46:23.592Z,99802.56
2023-02-21T06:51:30.070Z,99771.91
2023-02-21T06:56:33.301Z,99780.53
2023-02-21T07:01:36.141Z,99743.38
2023-02-21T07:06:39.038Z,99757.88
2023-02-21T07:11:42.085Z,99747.03
2023-02-21T07:16:44.809Z,99741.75
2023-02-21T07:21:47.877Z,99723.72
2023-02-21T07:26:51.901Z,99718.28
2023-02-21T07:31:55.567Z,99694.16
2023-02-21T07:36:58.648Z,99677.97
2023-02-21T07:42:02.784Z,99669.59
2023-02-21T07:47:05.533Z,99672.81
2023-02-21T07:52:08.480Z,99643.97
2023-02-21T07:57:11.373Z,99619.03
2023-02-21T08:02:15.451Z,99597.56
2023-02-21T08:07:18.169Z,99577.22
2023-02-21T08:12:21.407Z,99543.25
2023-02-21T08:17:24.376Z,99518.59
2023-02-21T08:22:27.276Z,99490.50
2023-02-21T08:27:30.265Z,99480.13
2023-02-21T08:32:35.749Z,99438.88
2023-02-21T08:37:45.528Z,99429.88
2023-02-21T08:42:53.136Z,99397.41
2023-02-21T08:47:56.713Z,99374.66
2023-02-21T08:53:00.196Z,99353.50
2023-02-21T08:58:03.268Z,66643.69
2023-02-21T09:04:05.872Z,66643.69
2023-02-21T09:10:10.112Z,66643.69
2023-02-21T09:16:14.326Z,66643.69
2023-02-21T09:22:16.918Z,66643.69
2023-02-21T09:28:18.852Z,66643.69
2023-02-21T09:34:20.497Z,66643.69
2023-02-21T09:40:23.027Z,66643.69
2023-02-21T09:46:32.121Z,66643.69
2023-02-21T09:52:35.726Z,66643.69
2023-02-21T09:58:39.741Z,66643.69
2023-02-21T10:04:54.586Z,66643.69
2023-02-21T10:11:03.872Z,66643.69
2023-02-21T10:17:27.413Z,66643.69
2023-02-21T10:23:36.645Z,66643.69
2023-02-21T10:29:47.846Z,66643.69
2023-02-21T10:35:49.715Z,66643.69
2023-02-21T10:46:34.597Z,98927.78
2023-02-21T10:51:37.462Z,98924.31
2023-02-21T10:56:40.380Z,98933.19
2023-02-21T11:01:49.587Z,98899.94
2023-02-21T11:06:57.768Z,98888.16
2023-02-21T11:12:21.298Z,98879.69
2023-02-21T11:17:25.464Z,98875.59
2023-02-21T11:22:35.213Z,98853.03
2023-02-21T11:27:39.997Z,98840.63
2023-02-21T11:32:49.951Z,98842.03
2023-02-21T11:38:03.684Z,98834.81
2023-02-21T11:43:12.705Z,98829.72
2023-02-21T11:48:19.851Z,98786.78
2023-02-21T11:53:51.351Z,98823.22
2023-02-21T11:59:19.963Z,98819.19
2023-02-21T12:05:03.194Z,98815.94
2023-02-21T12:10:34.559Z,98818.78
2023-02-21T12:15:49.364Z,98822.72
2023-02-21T12:21:23.107Z,98806.41
2023-02-21T12:26:49.136Z,98812.56
2023-02-21T12:31:58.271Z,98819.13
2023-02-21T12:37:22.114Z,98826.44
2023-02-21T12:42:45.541Z,98804.91
2023-02-21T12:48:12.290Z,98823.38
2023-02-21T12:53:20.849Z,98819.22
2023-02-21T12:58:39.718Z,98793.09
2023-02-21T13:03:55.304Z,98803.97
2023-02-21T13:09:23.450Z,98806.63
2023-02-21T13:14:34.027Z,98777.56
2023-02-21T13:19:48.412Z,98788.16
2023-02-21T13:24:55.396Z,98770.81
2023-02-21T13:30:14.159Z,98749.34
2023-02-21T13:35:22.193Z,98773.50
2023-02-21T13:40:33.224Z,98757.28
2023-02-21T13:45:36.058Z,98765.41
2023-02-21T13:50:39.491Z,98755.69
2023-02-21T13:56:08.174Z,98751.31
2023-02-21T14:01:42.715Z,98757.84
2023-02-21T14:06:56.954Z,98758.06
2023-02-21T14:12:03.962Z,98760.25
2023-02-21T14:17:11.681Z,98741.22
2023-02-21T14:22:21.070Z,98726.78
2023-02-21T14:27:27.968Z,98739.53
2023-02-21T14:32:38.200Z,98741.88
2023-02-21T14:37:45.122Z,98729.16
2023-02-21T14:43:02.470Z,98743.28
2023-02-21T14:48:17.924Z,98748.19
2023-02-21T14:53:38.951Z,98754.66
2023-02-21T14:59:00.580Z,98756.06
2023-02-21T15:04:20.704Z,98765.19
2023-02-21T15:09:23.688Z,98769.53
2023-02-21T15:14:29.799Z,98755.59
2023-02-21T15:19:35.345Z,98767.69
2023-02-21T15:24:38.273Z,98773.84
2023-02-21T15:29:41.768Z,98765.47
2023-02-21T15:34:46.927Z,98783.84
2023-02-21T15:39:59.738Z,98783.84
2023-02-21T15:45:08.176Z,98770.25
2023-02-21T15:50:17.878Z,98769.16
2023-02-21T15:55:24.620Z,98796.69
2023-02-21T16:00:39.553Z,98777.97
2023-02-21T16:05:42.677Z,98801.56
2023-02-21T16:10:46.240Z,98775.34
2023-02-21T16:15:49.723Z,98805.19
2023-02-21T16:21:01.065Z,98793.84
2023-02-21T16:26:09.771Z,98816.06
2023-02-21T16:31:25.401Z,98802.00
2023-02-21T16:36:32.598Z,98814.38
2023-02-21T16:41:35.555Z,98811.91
2023-02-21T16:46:38.573Z,98778.47
2023-02-21T16:51:43.925Z,98813.56
2023-02-21T16:56:51.781Z,98807.97
2023-02-21T17:01:55.181Z,98795.94
2023-02-21T17:07:06.780Z,98800.91
2023-02-21T17:12:13.579Z,98806.66
2023-02-21T17:17:18.086Z,98813.19
2023-02-21T17:22:21.596Z,98824.06
2023-02-21T17:27:24.752Z,98806.13
2023-02-21T17:32:27.637Z,98802.94
2023-02-21T17:37:30.612Z,98817.78
2023-02-21T17:42:33.578Z,98795.16
2023-02-21T17:47:36.834Z,98800.16
2023-02-21T17:52:40.375Z,98812.91
2023-02-21T17:57:43.607Z,98828.34
2023-02-21T18:02:46.456Z,98786.09
2023-02-21T18:07:54.006Z,98825.09
2023-02-21T18:12:57.166Z,98804.63
2023-02-21T18:18:06.947Z,98810.97
2023-02-21T18:23:10.914Z,98820.59
2023-02-21T18:28:14.064Z,98816.78
2023-02-21T18:33:17.045Z,98832.78
2023-02-21T18:38:20.088Z,98818.91
2023-02-21T18:43:27.786Z,98841.78
2023-02-21T18:48:30.708Z,98830.22
2023-02-21T18:53:33.699Z,98840.78
2023-02-21T18:58:37.123Z,98818.72
2023-02-21T19:03:40.472Z,98817.81
2023-02-21T19:08:43.548Z,98831.09
2023-02-21T19:13:47.793Z,98799.69
2023-02-21T19:18:51.866Z,98803.81
2023-02-21T19:23:54.620Z,98814.47
2023-02-21T19:28:57.548Z,98807.28
2023-02-21T19:34:00.344Z,98816.75
2023-02-21T19:39:03.309Z,98813.16
2023-02-21T19:44:08.569Z,98812.75
2023-02-21T19:49:18.596Z,98834.44
2023-02-21T19:54:24.963Z,98823.63
2023-02-21T19:59:29.672Z,98811.34
2023-02-21T20:04:34.010Z,98814.41
2023-02-21T20:09:37.544Z,98799.00
2023-02-21T20:14:46.158Z,98813.09
2023-02-21T20:19:49.047Z,98811.84
2023-02-21T20:24:51.876Z,98792.78
2023-02-21T20:29:54.584Z,98805.78
2023-02-21T20:34:57.645Z,98819.53
2023-02-21T20:40:01.810Z,98806.13
2023-02-21T20:45:06.489Z,98795.16
2023-02-21T20:50:10.115Z,98813.22
2023-02-21T20:55:16.560Z,98796.69
2023-02-21T21:00:23.828Z,98808.16
2023-02-21T21:05:26.817Z,98791.44
2023-02-21T21:10:29.735Z,98822.06
2023-02-21T21:15:32.764Z,98825.31
2023-02-21T21:20:39.170Z,98815.88
2023-02-21T21:25:42.227Z,98822.06
2023-02-21T21:30:45.016Z,98833.03
2023-02-21T21:35:49.101Z,98842.63
2023-02-21T21:40:53.470Z,98838.13
2023-02-21T21:45:56.295Z,98842.69
2023-02-21T21:50:58.883Z,98840.19
2023-02-21T21:56:05.040Z,98856.19
2023-02-21T22:01:07.996Z,98855.50
2023-02-21T22:06:11.289Z,98879.69
2023-02-21T22:11:14.286Z,98887.28
2023-02-21T22:16:18.009Z,98899.19
2023-02-21T22:21:22.600Z,98902.41
2023-02-21T22:26:27.292Z,98916.22
2023-02-21T22:31:31.598Z,98935.41
2023-02-21T22:36:37.178Z,98947.31
2023-02-21T22:41:40.232Z,98949.44
2023-02-21T22:46:48.999Z,98941.59
2023-02-21T22:51:51.919Z,98976.25
2023-02-21T22:57:04.114Z,98970.44
2023-02-21T23:02:07.031Z,98976.84
2023-02-21T23:07:09.806Z,98995.41
2023-02-21T23:12:15.323Z,99017.09
2023-02-21T23:17:18.126Z,99028.38
2023-02-21T23:22:20.804Z,99038.00
2023-02-21T23:27:23.882Z,99047.78
2023-02-21T23:32:26.706Z,99063.38
2023-02-21T23:37:29.352Z,99053.91
2023-02-21T23:42:32.429Z,99073.25
2023-02-21T23:47:36.671Z,99068.09
2023-02-21T23:52:39.619Z,99089.03
2023-02-21T23:57:45.250Z,99102.56
